Airfield :







YOU CAN JOIN US ON...

 
LOGIN :

Register | Disclaimer

   EN    FR    IT 

 









Legend :    VFR   Marginal VFR   IFR   Intensive IFR   Very Intensive IFR
Visi :
Ceiling :
>= 8 km
>= 3000ft
5 to 8 km
1000 to 3000 ft
1500m to 5 km
500 to 1000 ft
800 to 1500m
200 to 500 ft
< 800m
< 200 ft
Symbols :   Thunderstorms  Fog  Heavy snow  Heavy precipitations  Wind > 20 kt






- Airport Elevation : 59 ft
- IATA code : PBM


SMJP - J.A. Pengel Int.

CURRENT METAR :
  • 232000Z 05008KT 9999 VCSH FEW018CB SCT020 28/26 Q1010 NOSIG

EXPIRED METARs :
  • 231900Z 04007KT 010V070 9999 VCSH FEW018CB SCT020 28/26 Q1010 RESHRA NOSIG
  • 231831Z 09006KT 9999 -SHRA SCT018 SCT020 27/26 Q1010 RESHRA NOSIG
  • 231823Z 09019KT 2500 SHRA BKN015 BKN020 28/25 Q1011 BECMG AT1825 6000 -SHRA
  • 231800Z 04009KT 9999 VCSH FEW018TCU SCT020 29/25 Q1011 NOSIG

TAF TAF SMJP
Valid from the 23 at 18:00 until the 24 at 18:00 UTC


231600Z 2318/2418 04010KT SCT018 SCT030 TX31/2417Z TN23/2409Z
TEMPO 2318/2321 4000 SHRA BKN018
BECMG 2323/2401 05005KT FEW008
PROB30
TEMPO 2409/2411 VRB02KT 3000 BR FEW003



MET'MAP, your aeronautical weather chart ! - Copyright ORBIFLY December 2007 - Disclaimer

ORBIFLY MET'MAP TEAM :

Programming & Development : Alexandra Zaïnal
Concept & original design : Baudouin d'Aumeries
Assistance for programming : Marc-Olivier Méhu
Technical & hardware support : Manuel Goepfert

Contact : metmap@orbifly.com




SOURCES & CREDITS :

   NOAA